createdAt,value
2022-11-02T00:01:48.752Z,1.53
2022-11-02T00:06:51.920Z,1.40
2022-11-02T00:11:56.536Z,1.40
2022-11-02T00:16:59.716Z,1.70
2022-11-02T00:22:03.049Z,1.57
2022-11-02T00:27:07.750Z,1.70
2022-11-02T00:32:10.816Z,1.50
2022-11-02T00:37:13.860Z,1.10
2022-11-02T00:42:18.136Z,1.50
2022-11-02T00:47:21.812Z,1.40
2022-11-02T00:52:25.125Z,1.27
2022-11-02T00:57:30.045Z,1.40
2022-11-02T01:02:34.069Z,1.40
2022-11-02T01:07:38.537Z,1.33
2022-11-02T01:12:42.995Z,1.30
2022-11-02T01:17:46.941Z,1.27
2022-11-02T01:22:49.907Z,1.50
2022-11-02T01:27:54.267Z,1.40
2022-11-02T01:32:57.167Z,1.60
2022-11-02T01:38:00.999Z,1.50
2022-11-02T01:43:24.746Z,1.23
2022-11-02T01:48:31.957Z,1.70
2022-11-02T01:53:37.705Z,1.47
2022-11-02T01:58:42.570Z,1.47
2022-11-02T02:03:46.885Z,2.00
2022-11-02T02:08:52.269Z,1.60
2022-11-02T02:13:59.160Z,1.73
2022-11-02T02:19:09.551Z,1.50
2022-11-02T02:24:25.109Z,1.57
2022-11-02T02:29:35.350Z,1.90
2022-11-02T02:34:47.352Z,1.60
2022-11-02T02:39:56.226Z,1.23
2022-11-02T02:45:09.573Z,1.87
2022-11-02T02:50:17.218Z,1.40
2022-11-02T02:55:25.006Z,1.53
2022-11-02T03:00:31.466Z,1.77
2022-11-02T03:05:36.722Z,1.73
2022-11-02T03:10:47.626Z,1.40
2022-11-02T03:16:00.114Z,1.80
2022-11-02T03:21:07.983Z,2.23
2022-11-02T03:26:19.282Z,1.63
2022-11-02T03:31:34.558Z,1.67
2022-11-02T03:36:44.531Z,1.40
2022-11-02T03:41:49.079Z,1.47
2022-11-02T03:46:59.972Z,1.67
2022-11-02T03:52:09.816Z,1.90
2022-11-02T03:57:19.722Z,1.70
2022-11-02T04:02:25.027Z,2.20
2022-11-02T04:07:58.460Z,1.73
2022-11-02T04:13:20.894Z,1.20
2022-11-02T04:18:39.302Z,1.60
2022-11-02T04:23:59.734Z,1.50
2022-11-02T04:29:02.910Z,1.80
2022-11-02T04:34:07.797Z,1.37
2022-11-02T04:39:11.391Z,1.10
2022-11-02T04:44:15.850Z,1.27
2022-11-02T04:49:23.546Z,1.20
2022-11-02T04:54:26.674Z,1.50
2022-11-02T04:59:34.182Z,1.20
2022-11-02T05:04:38.899Z,1.20
2022-11-02T05:09:43.573Z,1.30
2022-11-02T05:14:48.898Z,1.13
2022-11-02T05:19:53.529Z,1.70
2022-11-02T05:24:57.245Z,1.60
2022-11-02T05:30:00.347Z,1.40
2022-11-02T05:35:06.382Z,1.27
2022-11-02T05:40:11.172Z,1.20
2022-11-02T05:45:14.622Z,1.10
2022-11-02T05:50:19.007Z,1.30
2022-11-02T05:55:22.256Z,1.47
2022-11-02T06:00:25.298Z,1.30
2022-11-02T06:05:29.659Z,1.47
2022-11-02T06:10:32.938Z,1.50
2022-11-02T06:15:35.872Z,1.30
2022-11-02T06:20:40.271Z,1.10
2022-11-02T06:25:43.233Z,1.10
2022-11-02T06:30:46.225Z,1.40
2022-11-02T06:35:53.083Z,1.03
2022-11-02T06:40:57.272Z,1.47
2022-11-02T06:46:00.359Z,1.13
2022-11-02T06:51:06.203Z,0.83
2022-11-02T06:56:10.342Z,1.33
2022-11-02T07:01:15.333Z,1.50
2022-11-02T07:06:19.876Z,1.20
2022-11-02T07:11:22.917Z,1.10
2022-11-02T07:16:26.320Z,1.10
2022-11-02T07:21:30.740Z,1.40
2022-11-02T07:26:33.839Z,1.20
2022-11-02T07:31:36.919Z,1.23
2022-11-02T07:36:41.634Z,1.33
2022-11-02T07:41:49.287Z,1.10
2022-11-02T07:46:54.652Z,1.10
2022-11-02T07:51:59.124Z,1.40
2022-11-02T07:57:02.094Z,1.03
2022-11-02T08:02:05.064Z,1.20
2022-11-02T08:07:09.481Z,1.20
2022-11-02T08:12:12.862Z,1.40
2022-11-02T08:17:15.807Z,1.30
2022-11-02T08:22:20.202Z,1.40
2022-11-02T08:27:23.161Z,1.30
2022-11-02T08:32:26.122Z,1.70
2022-11-02T08:37:30.520Z,1.73
2022-11-02T08:42:33.482Z,1.50
2022-11-02T08:47:41.658Z,1.53
2022-11-02T08:52:45.965Z,1.70
2022-11-02T08:57:49.685Z,1.50
2022-11-02T09:03:04.971Z,1.23
2022-11-02T09:08:12.553Z,1.30
2022-11-02T09:13:18.290Z,1.63
2022-11-02T09:18:21.530Z,1.70
2022-11-02T09:23:25.887Z,1.40
2022-11-02T09:28:28.901Z,1.13
2022-11-02T09:33:32.410Z,1.50
2022-11-02T09:38:37.062Z,1.20
2022-11-02T09:43:47.338Z,1.30
2022-11-02T09:48:53.450Z,1.33
2022-11-02T09:54:08.046Z,1.80
2022-11-02T09:59:15.631Z,1.53
2022-11-02T10:04:38.059Z,1.60
2022-11-02T10:09:50.991Z,1.27
2022-11-02T10:15:03.287Z,1.47
2022-11-02T10:20:16.884Z,1.30
2022-11-02T10:25:21.309Z,1.70
2022-11-02T10:30:24.287Z,1.30
2022-11-02T10:35:45.790Z,1.60
2022-11-02T10:41:14.626Z,1.50
2022-11-02T10:46:32.993Z,1.60
2022-11-02T10:51:36.309Z,1.33
2022-11-02T10:56:42.083Z,1.40
2022-11-02T11:02:04.616Z,2.00
2022-11-02T11:07:13.967Z,1.57
2022-11-02T11:12:22.404Z,1.37
2022-11-02T11:23:09.365Z,1.50
2022-11-02T11:28:25.608Z,1.50
2022-11-02T11:33:28.802Z,1.50
2022-11-02T11:38:31.899Z,1.17
2022-11-02T11:43:38.511Z,1.30
2022-11-02T11:48:43.918Z,1.27
2022-11-02T11:54:18.065Z,1.53
2022-11-02T11:59:25.209Z,1.47
2022-11-02T12:04:30.331Z,1.27
2022-11-02T12:09:39.963Z,1.40
2022-11-02T12:14:54.981Z,1.13
2022-11-02T12:20:12.359Z,1.30
2022-11-02T12:25:26.343Z,1.70
2022-11-02T12:30:36.985Z,1.40
2022-11-02T12:36:00.010Z,1.60
2022-11-02T12:41:05.934Z,1.87
2022-11-02T12:46:26.221Z,1.63
2022-11-02T12:51:33.089Z,2.00
2022-11-02T12:56:45.053Z,1.40
2022-11-02T13:01:53.159Z,1.60
2022-11-02T13:07:01.379Z,1.53
2022-11-02T13:12:09.397Z,1.53
2022-11-02T13:17:19.620Z,1.60
2022-11-02T13:22:29.551Z,1.60
2022-11-02T13:27:37.259Z,1.37
2022-11-02T13:32:46.579Z,1.40
2022-11-02T13:37:54.102Z,1.27
2022-11-02T13:43:26.863Z,1.10
2022-11-02T13:48:56.658Z,1.20
2022-11-02T13:54:03.119Z,1.40
2022-11-02T13:59:09.084Z,1.30
2022-11-02T14:04:15.841Z,1.03
2022-11-02T14:09:30.062Z,1.23
2022-11-02T14:14:33.221Z,1.40
2022-11-02T14:19:53.425Z,1.40
2022-11-02T14:25:22.058Z,1.10
2022-11-02T14:30:44.019Z,1.40
2022-11-02T14:35:57.680Z,1.30
2022-11-02T14:41:14.549Z,1.23
2022-11-02T14:46:33.907Z,1.60
2022-11-02T14:51:39.504Z,1.20
2022-11-02T14:56:51.343Z,1.03
2022-11-02T15:01:58.093Z,0.93
2022-11-02T15:07:05.738Z,1.10
2022-11-02T15:12:27.827Z,1.30
2022-11-02T15:17:54.422Z,1.00
2022-11-02T15:23:29.820Z,1.00
2022-11-02T15:28:35.877Z,0.67
2022-11-02T15:33:43.105Z,0.87
2022-11-02T15:38:51.602Z,1.00
2022-11-02T15:44:11.820Z,0.60
2022-11-02T15:49:29.767Z,0.87
2022-11-02T15:54:51.992Z,1.50
2022-11-02T16:00:13.102Z,1.23
2022-11-02T16:05:24.634Z,1.30
2022-11-02T16:10:31.043Z,1.77
2022-11-02T16:15:34.069Z,1.27
2022-11-02T16:20:39.903Z,1.57
2022-11-02T16:25:47.476Z,1.50
2022-11-02T16:31:14.379Z,1.23
2022-11-02T16:36:23.228Z,1.57
2022-11-02T16:41:29.050Z,1.70
2022-11-02T16:46:40.780Z,1.83
2022-11-02T16:51:50.704Z,1.93
2022-11-02T16:56:56.794Z,1.47
2022-11-02T17:02:01.785Z,1.67
2022-11-02T17:07:14.843Z,1.67
2022-11-02T17:12:20.558Z,1.50
2022-11-02T17:17:35.610Z,1.80
2022-11-02T17:22:40.261Z,2.40
2022-11-02T17:27:44.606Z,2.33
2022-11-02T17:32:47.655Z,1.90
2022-11-02T17:37:50.897Z,1.60
2022-11-02T17:43:02.256Z,1.23
2022-11-02T17:48:06.780Z,1.03
2022-11-02T17:53:13.675Z,0.83
2022-11-02T17:58:18.094Z,1.23
2022-11-02T18:03:25.436Z,0.90
2022-11-02T18:08:30.141Z,1.40
2022-11-02T18:13:34.450Z,1.80
2022-11-02T18:18:37.402Z,1.87
2022-11-02T18:23:41.573Z,1.50
2022-11-02T18:28:45.844Z,1.67
2022-11-02T18:33:52.307Z,1.30
2022-11-02T18:38:55.304Z,1.40
2022-11-02T18:44:04.849Z,0.80
2022-11-02T18:49:09.768Z,1.00
2022-11-02T18:54:13.101Z,1.10
2022-11-02T18:59:17.883Z,1.10
2022-11-02T19:04:21.009Z,0.97
2022-11-02T19:09:28.927Z,1.40
2022-11-02T19:14:35.861Z,1.40
2022-11-02T19:19:40.813Z,1.30
2022-11-02T19:24:43.794Z,1.13
2022-11-02T19:29:48.426Z,0.90
2022-11-02T19:34:51.350Z,1.10
2022-11-02T19:39:55.004Z,0.90
2022-11-02T19:44:59.587Z,1.00
2022-11-02T19:50:02.519Z,1.13
2022-11-02T19:55:06.058Z,0.70
2022-11-02T20:00:12.252Z,0.83
2022-11-02T20:05:15.359Z,1.90
2022-11-02T20:10:18.452Z,1.80
2022-11-02T20:15:22.886Z,1.43
2022-11-02T20:20:26.629Z,2.17
2022-11-02T20:25:30.127Z,1.20
2022-11-02T20:30:34.448Z,1.30
2022-11-02T20:35:38.905Z,1.50
2022-11-02T20:40:42.213Z,1.40
2022-11-02T20:45:46.573Z,1.00
2022-11-02T20:50:49.514Z,1.03
2022-11-02T20:55:52.745Z,1.00
2022-11-02T21:00:57.205Z,0.97
2022-11-02T21:06:03.861Z,1.00
2022-11-02T21:11:28.623Z,1.10
2022-11-02T21:16:32.889Z,1.30
2022-11-02T21:21:35.855Z,0.70
2022-11-02T21:26:38.803Z,1.03
2022-11-02T21:31:43.101Z,1.40
2022-11-02T21:36:46.191Z,1.70
2022-11-02T21:41:49.176Z,1.40
2022-11-02T21:46:53.492Z,1.33
2022-11-02T21:51:56.432Z,0.97
2022-11-02T21:56:59.517Z,0.87
2022-11-02T22:02:03.908Z,0.70
2022-11-02T22:07:06.930Z,0.93
2022-11-02T22:12:27.174Z,0.80
2022-11-02T22:22:54.460Z,0.40
2022-11-02T22:27:57.408Z,0.80
2022-11-02T22:33:01.673Z,1.07
2022-11-02T22:38:22.099Z,1.37
2022-11-02T22:43:25.057Z,1.20
2022-11-02T22:48:29.655Z,1.20
2022-11-02T22:53:33.183Z,1.30
2022-11-02T22:58:37.779Z,1.30
2022-11-02T23:03:42.064Z,1.10
2022-11-02T23:08:46.623Z,0.80
2022-11-02T23:13:52.080Z,0.57
2022-11-02T23:19:20.385Z,0.70
2022-11-02T23:24:47.315Z,0.93
2022-11-02T23:30:07.632Z,0.70
2022-11-02T23:35:29.541Z,0.83
2022-11-02T23:40:33.165Z,1.00
2022-11-02T23:45:36.383Z,1.00
2022-11-02T23:50:58.242Z,1.20
2022-11-02T23:56:19.096Z,1.30
